createdAt,value
2022-08-22T00:01:42.624Z,100982.75
2022-08-22T00:02:42.056Z,100941.91
2022-08-22T00:02:53.998Z,100956.63
2022-08-22T00:02:58.943Z,100985.94
2022-08-22T00:03:08.328Z,100988.41
2022-08-22T00:04:33.444Z,100984.84
2022-08-22T00:07:01.431Z,100998.66
2022-08-22T00:09:38.030Z,100996.50
2022-08-22T00:12:10.782Z,100986.28
2022-08-22T00:14:46.429Z,100985.22
2022-08-22T00:17:32.060Z,100991.47
2022-08-22T00:20:10.803Z,100981.63
2022-08-22T00:22:48.765Z,100991.22
2022-08-22T00:25:50.041Z,100981.44
2022-08-22T00:28:35.526Z,100988.94
2022-08-22T00:31:39.810Z,100982.03
2022-08-22T00:34:13.898Z,100985.13
2022-08-22T00:36:56.425Z,100991.78
2022-08-22T00:39:33.973Z,100992.22
2022-08-22T00:42:00.391Z,100996.56
2022-08-22T00:45:08.970Z,100985.53
2022-08-22T00:47:38.299Z,100993.84
2022-08-22T00:50:27.648Z,100995.06
2022-08-22T00:53:17.782Z,100986.06
2022-08-22T00:56:08.289Z,100989.78
2022-08-22T00:58:53.653Z,100979.53
2022-08-22T01:01:29.900Z,100989.34
2022-08-22T01:04:04.623Z,100982.22
2022-08-22T01:07:14.712Z,100982.66
2022-08-22T01:10:00.074Z,100996.47
2022-08-22T01:12:26.549Z,100998.31
2022-08-22T01:15:02.947Z,101003.50
2022-08-22T01:18:04.574Z,101007.25
2022-08-22T01:20:33.794Z,101003.31
2022-08-22T01:23:30.620Z,101012.84
2022-08-22T01:26:41.246Z,101012.41
2022-08-22T01:29:28.353Z,101014.91
2022-08-22T01:32:27.957Z,101011.94
2022-08-22T01:35:00.465Z,101015.91
2022-08-22T01:38:04.247Z,101015.06
2022-08-22T01:40:58.567Z,101017.09
2022-08-22T01:44:00.908Z,101009.44
2022-08-22T01:46:35.214Z,101020.59
2022-08-22T01:49:18.994Z,101017.44
2022-08-22T01:51:55.683Z,101022.03
2022-08-22T01:55:04.200Z,101019.06
2022-08-22T01:57:30.673Z,101014.66
2022-08-22T02:00:01.944Z,101015.06
2022-08-22T02:03:00.282Z,101014.88
2022-08-22T02:05:31.642Z,101017.78
2022-08-22T02:08:03.880Z,101011.72
2022-08-22T02:11:02.292Z,101006.31
2022-08-22T02:13:56.528Z,101003.31
2022-08-22T02:16:38.370Z,101009.78
2022-08-22T02:19:04.839Z,101009.56
2022-08-22T02:21:49.785Z,101010.34
2022-08-22T02:24:34.808Z,101009.50
2022-08-22T02:27:12.936Z,101012.38
2022-08-22T02:30:08.429Z,101011.16
2022-08-22T02:32:40.816Z,101012.38
2022-08-22T02:35:14.247Z,101009.88
2022-08-22T02:37:58.062Z,101014.19
2022-08-22T02:40:34.191Z,101010.28
2022-08-22T02:43:11.166Z,101011.53
2022-08-22T02:45:53.317Z,101009.56
2022-08-22T02:48:19.719Z,101012.06
2022-08-22T02:51:21.258Z,101011.28
2022-08-22T02:54:06.302Z,101004.22
2022-08-22T02:56:39.417Z,101009.66
2022-08-22T02:59:27.219Z,101005.16
2022-08-22T03:01:55.549Z,100996.16
2022-08-22T03:04:30.549Z,100998.19
2022-08-22T03:07:11.979Z,101010.59
2022-08-22T03:09:51.363Z,101006.06
2022-08-22T03:12:32.194Z,101002.59
2022-08-22T03:15:07.374Z,101011.41
2022-08-22T03:17:47.930Z,100996.59
2022-08-22T03:20:23.171Z,100996.81
2022-08-22T03:23:04.475Z,101003.63
2022-08-22T03:25:51.268Z,100992.16
2022-08-22T03:28:29.063Z,100993.19
2022-08-22T03:30:59.197Z,100996.16
2022-08-22T03:33:31.049Z,100997.81
2022-08-22T03:35:59.678Z,101000.06
2022-08-22T03:38:34.687Z,100996.75
2022-08-22T03:41:12.957Z,100998.19
2022-08-22T03:43:51.670Z,100995.75
2022-08-22T03:46:48.863Z,101005.38
2022-08-22T03:49:49.418Z,101007.69
2022-08-22T03:53:15.407Z,101000.66
2022-08-22T03:55:51.643Z,100996.88
2022-08-22T03:58:46.602Z,101003.13
2022-08-22T04:01:31.732Z,101010.59
2022-08-22T04:04:07.266Z,101004.94
2022-08-22T04:06:49.405Z,101011.41
2022-08-22T04:09:20.046Z,101003.69
2022-08-22T04:11:53.478Z,101006.22
2022-08-22T04:14:25.671Z,101008.09
2022-08-22T04:17:37.434Z,101015.38
2022-08-22T04:20:09.840Z,101012.50
2022-08-22T04:22:50.995Z,101012.72
2022-08-22T04:25:23.367Z,101018.72
2022-08-22T04:28:27.544Z,101024.78
2022-08-22T04:31:03.348Z,101029.16
2022-08-22T04:33:40.128Z,101027.75
2022-08-22T04:36:32.455Z,101032.41
2022-08-22T04:39:13.163Z,101026.53
2022-08-22T04:41:51.650Z,101023.44
2022-08-22T04:44:28.150Z,101032.84
2022-08-22T04:47:05.152Z,101032.00
2022-08-22T04:49:40.182Z,101036.00
2022-08-22T04:52:24.403Z,101042.91
2022-08-22T04:55:17.994Z,101044.19
2022-08-22T04:58:01.723Z,101041.28
2022-08-22T05:00:41.636Z,101050.66
2022-08-22T05:03:13.064Z,101053.44
2022-08-22T05:05:41.555Z,101051.16
2022-08-22T05:08:13.263Z,101055.34
2022-08-22T05:10:46.431Z,101063.47
2022-08-22T05:13:29.415Z,101065.16
2022-08-22T05:15:59.647Z,101066.38
2022-08-22T05:18:32.149Z,101063.13
2022-08-22T05:21:01.928Z,101073.00
2022-08-22T05:23:36.322Z,101071.13
2022-08-22T05:26:06.217Z,101072.91
2022-08-22T05:28:43.754Z,101065.41
2022-08-22T05:31:15.276Z,101076.00
2022-08-22T05:33:53.004Z,101084.59
2022-08-22T05:36:25.246Z,101076.00
2022-08-22T05:38:56.962Z,101079.66
2022-08-22T05:41:27.612Z,101076.84
2022-08-22T05:43:55.512Z,101089.41
2022-08-22T05:46:48.003Z,101086.94
2022-08-22T05:49:20.909Z,101081.13
2022-08-22T05:52:20.322Z,101084.03
2022-08-22T05:55:06.318Z,101079.94
2022-08-22T05:57:38.447Z,101085.19
2022-08-22T06:00:11.457Z,101085.81
2022-08-22T06:03:06.374Z,101085.91
2022-08-22T06:05:39.009Z,101089.31
2022-08-22T06:08:20.176Z,101089.75
2022-08-22T06:10:56.954Z,101091.44
2022-08-22T06:13:32.518Z,101092.91
2022-08-22T06:16:21.464Z,101090.03
2022-08-22T06:18:50.246Z,101091.50
2022-08-22T06:21:32.537Z,101096.13
2022-08-22T06:24:03.390Z,101098.66
2022-08-22T06:26:38.213Z,101102.03
2022-08-22T06:29:07.309Z,101101.41
2022-08-22T06:31:50.440Z,101090.34
2022-08-22T06:34:28.292Z,101098.75
2022-08-22T06:36:57.598Z,101105.00
2022-08-22T06:39:30.166Z,101102.09
2022-08-22T06:42:10.320Z,101104.41
2022-08-22T06:45:15.098Z,101109.03
2022-08-22T06:48:07.879Z,101107.78
2022-08-22T06:50:41.257Z,101110.50
2022-08-22T06:53:21.626Z,101115.09
2022-08-22T06:55:52.943Z,101116.34
2022-08-22T06:58:41.931Z,101122.63
2022-08-22T07:01:12.897Z,101115.72
2022-08-22T07:04:05.052Z,101125.13
2022-08-22T07:06:35.911Z,101120.13
2022-08-22T07:09:05.781Z,101118.84
2022-08-22T07:11:38.528Z,101122.59
2022-08-22T07:14:08.340Z,101109.25
2022-08-22T07:16:53.686Z,101120.69
2022-08-22T07:19:33.134Z,101122.50
2022-08-22T07:22:11.070Z,101123.56
2022-08-22T07:24:46.747Z,101122.50
2022-08-22T07:27:16.002Z,101125.34
2022-08-22T07:30:05.014Z,101131.56
2022-08-22T07:32:51.817Z,101140.34
2022-08-22T07:35:21.399Z,101135.53
2022-08-22T07:38:15.677Z,101130.72
2022-08-22T07:40:50.949Z,101126.06
2022-08-22T07:43:31.156Z,101128.66
2022-08-22T07:46:14.674Z,101127.28
2022-08-22T07:49:09.610Z,101129.00
2022-08-22T07:51:44.435Z,101128.81
2022-08-22T07:54:14.762Z,101140.97
2022-08-22T07:56:52.187Z,101129.66
2022-08-22T07:59:21.394Z,101135.47
2022-08-22T08:01:54.430Z,101132.63
2022-08-22T08:04:26.167Z,101143.03
2022-08-22T08:06:56.455Z,101146.06
2022-08-22T08:09:26.415Z,101137.81
2022-08-22T08:11:54.319Z,101139.44
2022-08-22T08:14:24.068Z,101135.84
2022-08-22T08:17:10.652Z,101139.88
2022-08-22T08:19:41.186Z,101134.44
2022-08-22T08:22:07.965Z,101144.00
2022-08-22T08:24:42.599Z,101140.22
2022-08-22T08:27:35.477Z,101133.25
2022-08-22T08:30:17.067Z,101137.75
2022-08-22T08:32:47.864Z,101135.81
2022-08-22T08:35:28.298Z,101140.59
2022-08-22T08:38:10.409Z,101139.47
2022-08-22T08:41:30.910Z,101134.75
2022-08-22T08:44:03.378Z,101143.22
2022-08-22T08:47:14.226Z,101134.69
2022-08-22T08:49:52.279Z,101121.28
2022-08-22T08:52:54.480Z,101128.97
2022-08-22T08:55:42.494Z,101123.78
2022-08-22T08:58:38.190Z,101126.78
2022-08-22T09:01:34.709Z,101133.59
2022-08-22T09:04:15.144Z,101125.50
2022-08-22T09:06:42.534Z,101132.91
2022-08-22T09:09:41.615Z,101134.75
2022-08-22T09:15:38.914Z,101128.84
2022-08-22T09:18:26.964Z,101132.56
2022-08-22T09:21:02.465Z,101127.94
2022-08-22T09:23:36.579Z,101132.28
2022-08-22T09:26:19.025Z,101132.41
2022-08-22T09:28:54.252Z,101135.22
2022-08-22T09:34:31.274Z,101142.75
2022-08-22T09:37:27.274Z,101136.00
2022-08-22T09:40:19.587Z,101141.25
2022-08-22T09:43:01.869Z,101135.19
2022-08-22T09:45:48.822Z,101129.81
2022-08-22T09:48:28.790Z,101135.09
2022-08-22T09:51:28.697Z,101131.81
2022-08-22T09:54:08.391Z,101140.94
2022-08-22T09:56:35.499Z,101129.31
2022-08-22T09:59:20.708Z,101134.69
2022-08-22T10:01:57.676Z,101136.00
2022-08-22T10:04:42.019Z,101136.69
2022-08-22T10:07:35.893Z,101134.03
2022-08-22T10:10:15.745Z,101142.84
2022-08-22T10:13:19.841Z,101139.06
2022-08-22T10:16:08.041Z,101140.16
2022-08-22T10:18:53.778Z,101144.00
2022-08-22T10:21:21.146Z,101141.25
2022-08-22T10:24:07.256Z,101146.94
2022-08-22T10:26:48.288Z,101148.47
2022-08-22T10:29:37.909Z,101137.66
2022-08-22T10:32:14.592Z,101144.41
2022-08-22T10:34:47.322Z,101140.94
2022-08-22T10:37:39.692Z,101132.78
2022-08-22T10:40:32.497Z,101138.44
2022-08-22T10:43:18.203Z,101144.19
2022-08-22T10:45:48.341Z,101136.91
2022-08-22T10:48:36.362Z,101140.94
2022-08-22T10:51:16.409Z,101134.03
2022-08-22T10:53:56.346Z,101135.13
2022-08-22T10:56:32.103Z,101131.84
2022-08-22T10:59:25.985Z,101129.22
2022-08-22T11:02:36.211Z,101132.78
2022-08-22T11:05:27.338Z,101133.91
2022-08-22T11:08:09.824Z,101134.03
2022-08-22T11:10:54.945Z,101140.94
2022-08-22T11:13:43.293Z,101126.81
2022-08-22T11:16:27.348Z,101128.78
2022-08-22T11:19:31.055Z,101128.25
2022-08-22T11:22:25.492Z,101133.59
2022-08-22T11:25:05.056Z,101129.44
2022-08-22T11:28:10.515Z,101139.22
2022-08-22T11:30:57.740Z,101132.50
2022-08-22T11:33:47.300Z,101134.84
2022-08-22T11:36:46.666Z,101135.41
2022-08-22T11:39:34.660Z,101119.56
2022-08-22T11:42:32.174Z,101124.47
2022-08-22T11:45:06.622Z,101105.09
2022-08-22T11:48:08.797Z,101117.38
2022-08-22T11:50:42.200Z,101123.03
2022-08-22T11:53:22.730Z,101117.50
2022-08-22T11:56:13.325Z,101120.59
2022-08-22T11:59:20.827Z,101115.88
2022-08-22T12:02:04.228Z,101120.19
2022-08-22T12:04:51.993Z,101120.38
2022-08-22T12:07:32.381Z,101116.41
2022-08-22T12:10:04.730Z,101116.03
2022-08-22T12:12:42.441Z,101115.78
2022-08-22T12:15:24.419Z,101112.94
2022-08-22T12:18:25.025Z,101112.97
2022-08-22T12:21:02.683Z,101108.28
2022-08-22T12:23:50.248Z,101110.56
2022-08-22T12:26:25.866Z,101110.56
2022-08-22T12:29:03.281Z,101096.94
2022-08-22T12:32:16.464Z,101105.19
2022-08-22T12:35:14.124Z,101090.28
2022-08-22T12:38:26.566Z,101095.13
2022-08-22T12:40:55.943Z,101096.25
2022-08-22T12:43:32.320Z,101088.50
2022-08-22T12:46:17.458Z,101088.94
2022-08-22T12:48:53.415Z,101088.63
2022-08-22T12:51:38.075Z,101078.91
2022-08-22T12:54:36.782Z,101076.41
2022-08-22T12:57:24.394Z,101076.75
2022-08-22T13:00:35.062Z,101078.22
2022-08-22T13:03:10.016Z,101085.81
2022-08-22T13:05:40.881Z,101081.06
2022-08-22T13:08:29.635Z,101083.88
2022-08-22T13:11:01.454Z,101080.50
2022-08-22T13:13:56.014Z,101078.25
2022-08-22T13:16:25.496Z,101075.72
2022-08-22T13:18:57.160Z,101068.50
2022-08-22T13:21:31.520Z,101061.81
2022-08-22T13:24:10.509Z,101076.97
2022-08-22T13:26:46.013Z,101073.78
2022-08-22T13:29:39.349Z,101068.22
2022-08-22T13:32:23.562Z,101072.25
2022-08-22T13:34:56.475Z,101069.84
2022-08-22T13:37:31.445Z,101069.88
2022-08-22T13:40:04.385Z,101072.16
2022-08-22T13:42:36.125Z,101081.50
2022-08-22T13:45:14.484Z,101073.88
2022-08-22T13:47:50.564Z,101075.09
2022-08-22T13:50:22.350Z,101074.13
2022-08-22T13:52:55.263Z,101068.41
2022-08-22T13:55:34.103Z,101065.63
2022-08-22T13:58:33.944Z,101071.50
2022-08-22T14:01:07.272Z,101074.38
2022-08-22T14:03:45.447Z,101074.72
2022-08-22T14:06:37.494Z,101069.88
2022-08-22T14:09:17.364Z,101071.56
2022-08-22T14:12:19.013Z,101069.19
2022-08-22T14:14:52.385Z,101072.63
2022-08-22T14:17:24.462Z,101064.81
2022-08-22T14:19:58.755Z,101068.34
2022-08-22T14:22:32.620Z,101064.19
2022-08-22T14:25:07.516Z,101058.78
2022-08-22T14:27:39.771Z,101061.69
2022-08-22T14:30:13.360Z,101061.25
2022-08-22T14:33:00.123Z,101057.13
2022-08-22T14:35:37.686Z,101061.19
2022-08-22T14:38:31.768Z,101064.88
2022-08-22T14:41:06.163Z,101062.16
2022-08-22T14:43:32.578Z,101054.88
2022-08-22T14:46:18.101Z,101062.97
2022-08-22T14:49:07.723Z,101050.41
2022-08-22T14:51:37.971Z,101060.09
2022-08-22T14:54:21.665Z,101059.13
2022-08-22T14:56:50.866Z,101056.34
2022-08-22T14:59:36.634Z,101054.72
2022-08-22T15:02:14.070Z,101054.13
2022-08-22T15:04:52.845Z,101057.69
2022-08-22T15:07:32.528Z,101059.94
2022-08-22T15:10:08.135Z,101051.69
2022-08-22T15:12:49.465Z,101050.00
2022-08-22T15:15:53.274Z,101054.38
2022-08-22T15:18:28.484Z,101057.44
2022-08-22T15:21:11.400Z,101070.28
2022-08-22T15:23:45.367Z,101067.75
2022-08-22T15:26:39.636Z,101061.06
2022-08-22T15:29:30.275Z,101055.63
2022-08-22T15:32:03.313Z,101061.41
2022-08-22T15:34:38.181Z,101057.22
2022-08-22T15:37:20.470Z,101063.19
2022-08-22T15:40:12.621Z,101057.97
2022-08-22T15:42:51.013Z,101051.69
2022-08-22T15:45:33.892Z,101046.03
2022-08-22T15:48:07.145Z,101048.94
2022-08-22T15:50:40.613Z,101059.47
2022-08-22T15:53:11.447Z,101052.13
2022-08-22T15:55:38.002Z,101061.94
2022-08-22T15:58:20.217Z,101052.38
2022-08-22T16:01:19.160Z,101060.66
2022-08-22T16:04:02.023Z,101053.22
2022-08-22T16:06:52.269Z,101055.03
2022-08-22T16:09:51.746Z,101049.69
2022-08-22T16:12:33.586Z,101057.94
2022-08-22T16:15:01.900Z,101049.97
2022-08-22T16:17:28.403Z,101058.19
2022-08-22T16:20:12.094Z,101061.69
2022-08-22T16:23:07.390Z,101058.00
2022-08-22T16:25:45.806Z,101059.59
2022-08-22T16:28:56.891Z,101055.09
2022-08-22T16:31:24.946Z,101052.34
2022-08-22T16:33:51.552Z,101053.88
2022-08-22T16:36:20.834Z,101058.19
2022-08-22T16:38:58.706Z,101065.44
2022-08-22T16:41:41.860Z,101055.16
2022-08-22T16:44:22.669Z,101052.69
2022-08-22T16:46:52.712Z,101056.38
2022-08-22T16:49:31.845Z,101052.66
2022-08-22T16:52:26.106Z,101057.28
2022-08-22T16:54:58.734Z,101060.03
2022-08-22T16:57:31.150Z,101062.78
2022-08-22T17:00:12.943Z,101066.19
2022-08-22T17:03:13.568Z,101071.50
2022-08-22T17:06:03.715Z,101068.72
2022-08-22T17:09:17.459Z,101076.09
2022-08-22T17:12:09.312Z,101067.44
2022-08-22T17:15:06.786Z,101065.25
2022-08-22T17:17:51.291Z,101061.13
2022-08-22T17:20:35.765Z,101052.97
2022-08-22T17:23:20.861Z,101056.94
2022-08-22T17:26:27.960Z,101065.28
2022-08-22T17:29:25.357Z,101060.84
2022-08-22T17:32:15.950Z,101068.22
2022-08-22T17:34:56.938Z,101071.47
2022-08-22T17:37:54.924Z,101071.81
2022-08-22T17:40:33.502Z,101078.13
2022-08-22T17:43:15.162Z,101083.78
2022-08-22T17:45:48.850Z,101085.28
2022-08-22T17:48:20.497Z,101085.03
2022-08-22T17:50:54.951Z,101086.22
2022-08-22T17:53:24.589Z,101093.75
2022-08-22T17:56:00.733Z,101098.47
2022-08-22T17:58:43.527Z,101092.81
2022-08-22T18:01:31.208Z,101101.28
2022-08-22T18:04:01.418Z,101113.34
2022-08-22T18:06:33.114Z,101119.13
2022-08-22T18:09:20.856Z,101111.19
2022-08-22T18:12:15.648Z,101117.34
2022-08-22T18:14:54.437Z,101128.03
2022-08-22T18:17:47.182Z,101125.28
2022-08-22T18:20:24.823Z,101129.31
2022-08-22T18:23:00.964Z,101136.69
2022-08-22T18:25:40.699Z,101129.09
2022-08-22T18:28:26.980Z,101128.94
2022-08-22T18:31:27.329Z,101131.03
2022-08-22T18:34:06.359Z,101130.00
2022-08-22T18:36:38.753Z,101131.03
2022-08-22T18:39:14.936Z,101128.09
2022-08-22T18:41:45.397Z,101129.97
2022-08-22T18:44:18.251Z,101128.28
2022-08-22T18:46:47.835Z,101136.66
2022-08-22T18:49:20.929Z,101127.66
2022-08-22T18:52:19.452Z,101124.94
2022-08-22T18:55:17.804Z,101130.56
2022-08-22T18:57:53.997Z,101133.94
2022-08-22T19:00:25.983Z,101137.06
2022-08-22T19:03:14.092Z,101136.66
2022-08-22T19:05:52.973Z,101141.47
2022-08-22T19:08:38.923Z,101140.44
2022-08-22T19:11:35.131Z,101144.19
2022-08-22T19:14:16.022Z,101139.19
2022-08-22T19:17:23.777Z,101145.66
2022-08-22T19:20:08.934Z,101143.38
2022-08-22T19:22:36.762Z,101142.09
2022-08-22T19:25:12.867Z,101146.31
2022-08-22T19:27:44.650Z,101151.94
2022-08-22T19:30:33.992Z,101158.00
2022-08-22T19:33:03.990Z,101159.44
2022-08-22T19:36:05.640Z,101154.66
2022-08-22T19:38:56.352Z,101153.59
2022-08-22T19:41:42.369Z,101162.56
2022-08-22T19:44:37.738Z,101163.63
2022-08-22T19:47:18.063Z,101156.97
2022-08-22T19:49:55.130Z,101164.06
2022-08-22T19:53:09.796Z,101166.97
2022-08-22T19:55:36.702Z,101163.41
2022-08-22T19:58:03.125Z,101164.41
2022-08-22T20:01:06.885Z,101154.00
2022-08-22T20:03:42.398Z,101155.84
2022-08-22T20:06:44.332Z,101151.91
2022-08-22T20:09:14.005Z,101164.09
2022-08-22T20:11:47.622Z,101160.69
2022-08-22T20:14:32.599Z,101164.28
2022-08-22T20:16:59.057Z,101166.97
2022-08-22T20:20:16.415Z,101169.03
2022-08-22T20:22:42.453Z,101163.41
2022-08-22T20:25:33.391Z,101163.00
2022-08-22T20:28:03.936Z,101158.59
2022-08-22T20:30:41.018Z,101156.53
2022-08-22T20:33:13.912Z,101163.44
2022-08-22T20:36:24.230Z,101166.13
2022-08-22T20:39:00.521Z,101156.16
2022-08-22T20:41:36.958Z,101155.94
2022-08-22T20:44:25.579Z,101156.84
2022-08-22T20:47:07.754Z,101158.88
2022-08-22T20:49:44.806Z,101166.22
2022-08-22T20:52:24.002Z,101162.09
2022-08-22T20:55:12.651Z,101158.25
2022-08-22T20:57:48.025Z,101167.97
2022-08-22T21:00:22.261Z,101164.53
2022-08-22T21:03:07.260Z,101163.94
2022-08-22T21:05:43.397Z,101165.88
2022-08-22T21:08:15.487Z,101168.66
2022-08-22T21:11:01.431Z,101160.50
2022-08-22T21:13:27.912Z,101165.09
2022-08-22T21:16:02.358Z,101155.72
2022-08-22T21:18:33.413Z,101152.41
2022-08-22T21:21:12.754Z,101151.19
2022-08-22T21:23:47.393Z,101161.47
2022-08-22T21:26:19.569Z,101161.72
2022-08-22T21:28:57.170Z,101157.38
2022-08-22T21:31:26.959Z,101165.63
2022-08-22T21:33:55.644Z,101166.91
2022-08-22T21:36:25.672Z,101178.69
2022-08-22T21:39:03.557Z,101174.41
2022-08-22T21:41:47.175Z,101178.44
2022-08-22T21:44:26.073Z,101186.00
2022-08-22T21:46:53.495Z,101176.22
2022-08-22T21:49:26.554Z,101166.91
2022-08-22T21:51:53.639Z,101174.06
2022-08-22T21:54:31.199Z,101178.38
2022-08-22T21:57:11.091Z,101181.56
2022-08-22T21:59:51.790Z,101173.38
2022-08-22T22:02:34.274Z,101179.09
2022-08-22T22:05:08.197Z,101179.38
2022-08-22T22:07:40.125Z,101178.34
2022-08-22T22:10:09.641Z,101177.72
2022-08-22T22:12:40.766Z,101173.41
2022-08-22T22:15:08.149Z,101176.66
2022-08-22T22:17:34.618Z,101170.84
2022-08-22T22:20:01.125Z,101176.44
2022-08-22T22:22:27.560Z,101169.47
2022-08-22T22:24:54.058Z,101171.09
2022-08-22T22:27:20.567Z,101175.66
2022-08-22T22:29:47.051Z,101174.22
2022-08-22T22:32:13.542Z,101170.78
2022-08-22T22:34:40.045Z,101169.53
2022-08-22T22:37:08.327Z,101170.13
2022-08-22T22:39:38.771Z,101154.38
2022-08-22T22:42:05.816Z,101165.63
2022-08-22T22:44:32.466Z,101157.03
2022-08-22T22:47:02.143Z,101155.66
2022-08-22T22:49:30.968Z,101159.94
2022-08-22T22:51:59.185Z,101155.00
2022-08-22T22:54:27.008Z,101149.28
2022-08-22T22:56:54.556Z,101152.97
2022-08-22T22:59:24.758Z,101155.06
2022-08-22T23:02:06.188Z,101153.41
2022-08-22T23:04:34.175Z,101159.66
2022-08-22T23:07:00.865Z,101157.75
2022-08-22T23:09:38.029Z,101157.78
2022-08-22T23:12:11.072Z,101156.56
2022-08-22T23:14:37.529Z,101164.25
2022-08-22T23:17:05.069Z,101162.19
2022-08-22T23:19:31.839Z,101165.34
2022-08-22T23:22:00.997Z,101166.44
2022-08-22T23:24:29.835Z,101161.69
2022-08-22T23:26:57.033Z,101160.00
2022-08-22T23:29:23.650Z,101159.63
2022-08-22T23:31:56.276Z,101156.47
2022-08-22T23:34:26.047Z,101156.09
2022-08-22T23:36:55.212Z,101151.66
2022-08-22T23:39:23.822Z,101159.97
2022-08-22T23:41:50.889Z,101157.97
2022-08-22T23:44:21.416Z,101155.44
2022-08-22T23:46:48.124Z,101154.03
2022-08-22T23:49:15.646Z,101154.81
2022-08-22T23:51:43.884Z,101152.13
2022-08-22T23:54:11.545Z,101147.31
2022-08-22T23:56:41.620Z,101146.28
2022-08-22T23:59:12.466Z,101143.47
